Time;durP1;ratioP1;P1;durP2;ratioP2;P2;SDS_P1;SDS_P2;PMS_P1;PMS_P2;Temp;Humidity;BMP_temperature;BMP_pressure;BME280_temperature;BME280_humidity;BME280_pressure;Samples;Min_cycle;Max_cycle;Signal;HPM_P1;HPM_P2
2022/04/19 00:01:14;;;;;;;1.85;0.57;;;;;;;;;;5054686;28;20021;-74
2022/04/19 00:03:41;;;;;;;0.93;0.43;;;;;;;;;;5053216;28;20060;-74
2022/04/19 00:06:08;;;;;;;0.90;0.40;;;;;;;;;;5054607;28;20539;-73
2022/04/19 00:08:35;;;;;;;1.23;0.30;;;;;;;;;;5054490;28;20025;-73
2022/04/19 00:11:04;;;;;;;0.70;0.40;;;;;;;;;;5054522;28;20082;-73
2022/04/19 00:13:31;;;;;;;0.43;0.40;;;;;;;;;;5053150;28;20124;-73
2022/04/19 00:15:58;;;;;;;1.90;0.47;;;;;;;;;;5052838;28;20029;-73
2022/04/19 00:18:27;;;;;;;1.10;0.40;;;;;;;;;;5054262;28;20021;-74
2022/04/19 00:20:54;;;;;;;1.00;0.45;;;;;;;;;;5052965;28;20025;-74
2022/04/19 00:23:22;;;;;;;0.82;0.30;;;;;;;;;;5054030;28;20028;-73
2022/04/19 00:25:53;;;;;;;1.30;0.40;;;;;;;;;;5054279;28;20393;-74
2022/04/19 00:28:20;;;;;;;1.80;0.30;;;;;;;;;;5052945;28;20053;-74
2022/04/19 00:30:47;;;;;;;0.40;0.30;;;;;;;;;;5054081;28;20031;-73
2022/04/19 00:33:14;;;;;;;0.68;0.40;;;;;;;;;;5054124;28;20498;-73
2022/04/19 00:35:42;;;;;;;1.13;0.30;;;;;;;;;;5053986;28;20021;-72
2022/04/19 00:38:09;;;;;;;1.70;0.40;;;;;;;;;;5054015;28;20100;-73
2022/04/19 00:40:36;;;;;;;1.15;0.30;;;;;;;;;;5051816;28;20028;-73
2022/04/19 00:43:04;;;;;;;1.23;0.40;;;;;;;;;;5052722;28;20579;-74
2022/04/19 00:45:34;;;;;;;1.30;0.35;;;;;;;;;;5052514;28;20170;-74
2022/04/19 00:48:02;;;;;;;2.67;0.40;;;;;;;;;;5053554;28;20419;-74
2022/04/19 00:50:31;;;;;;;1.77;0.35;;;;;;;;;;5052259;28;20032;-72
2022/04/19 00:52:59;;;;;;;2.13;0.40;;;;;;;;;;5052305;28;20025;-74
2022/04/19 00:55:26;;;;;;;3.20;0.43;;;;;;;;;;5053499;28;20021;-75
2022/04/19 00:57:54;;;;;;;1.55;0.40;;;;;;;;;;5053728;28;20433;-73
2022/04/19 01:00:21;;;;;;;1.20;0.40;;;;;;;;;;5053512;28;20098;-75
2022/04/19 01:02:48;;;;;;;1.48;0.22;;;;;;;;;;5052251;28;20017;-75
2022/04/19 01:05:16;;;;;;;0.93;0.20;;;;;;;;;;5053311;28;20036;-76
2022/04/19 01:07:45;;;;;;;1.05;0.30;;;;;;;;;;5053493;28;20446;-75
2022/04/19 01:10:12;;;;;;;1.60;0.30;;;;;;;;;;5053362;28;20075;-74
2022/04/19 01:15:25;;;;;;;0.82;0.28;;;;;;;;;;5053170;28;20040;-74
2022/04/19 01:17:53;;;;;;;1.35;0.40;;;;;;;;;;5053258;28;20079;-73
2022/04/19 01:20:20;;;;;;;0.47;0.30;;;;;;;;;;5053007;28;20056;-74
2022/04/19 01:22:52;;;;;;;1.30;0.20;;;;;;;;;;5053062;28;20041;-74
2022/04/19 01:25:20;;;;;;;0.40;0.20;;;;;;;;;;5051729;28;20028;-74
2022/04/19 01:27:48;;;;;;;0.95;0.30;;;;;;;;;;5051760;28;20032;-74
2022/04/19 01:30:16;;;;;;;2.08;0.30;;;;;;;;;;5051569;28;20024;-73
2022/04/19 01:32:43;;;;;;;2.90;0.30;;;;;;;;;;5053061;28;20029;-74
2022/04/19 01:35:12;;;;;;;0.63;0.22;;;;;;;;;;5052730;28;20463;-73
2022/04/19 01:37:40;;;;;;;1.45;0.30;;;;;;;;;;5052657;28;20028;-73
2022/04/19 01:40:16;;;;;;;1.45;0.30;;;;;;;;;;5052753;28;20436;-74
2022/04/19 01:42:48;;;;;;;1.30;0.15;;;;;;;;;;5051338;28;20024;-74
2022/04/19 01:45:19;;;;;;;0.68;0.30;;;;;;;;;;5052450;28;20105;-73
2022/04/19 01:47:46;;;;;;;0.80;0.30;;;;;;;;;;5052545;28;20397;-72
2022/04/19 01:50:14;;;;;;;0.60;0.20;;;;;;;;;;5051644;28;20020;-73
2022/04/19 01:52:42;;;;;;;1.67;0.40;;;;;;;;;;5052484;28;20028;-71
2022/04/19 01:55:13;;;;;;;1.52;0.30;;;;;;;;;;5052631;28;20490;-71
2022/04/19 01:57:44;;;;;;;1.08;0.20;;;;;;;;;;5052583;28;20175;-71
2022/04/19 02:00:12;;;;;;;1.40;0.20;;;;;;;;;;5051387;28;20025;-71
2022/04/19 02:02:40;;;;;;;0.68;0.20;;;;;;;;;;5051205;28;20040;-72
2022/04/19 02:05:07;;;;;;;1.35;0.20;;;;;;;;;;5052511;28;20021;-71
2022/04/19 02:07:38;;;;;;;1.15;0.20;;;;;;;;;;5051031;28;20553;-72
2022/04/19 02:10:06;;;;;;;0.52;0.20;;;;;;;;;;5052514;28;20035;-72
2022/04/19 02:12:33;;;;;;;0.68;0.30;;;;;;;;;;5051046;28;20033;-72
2022/04/19 02:15:01;;;;;;;2.13;0.17;;;;;;;;;;5050944;28;20433;-71
2022/04/19 02:17:28;;;;;;;1.00;0.32;;;;;;;;;;5052093;28;20021;-70
2022/04/19 02:19:59;;;;;;;0.52;0.10;;;;;;;;;;5052161;28;20017;-71
2022/04/19 02:22:27;;;;;;;0.30;0.30;;;;;;;;;;5052040;28;20394;-72
2022/04/19 02:24:56;;;;;;;0.90;0.30;;;;;;;;;;5050781;28;20021;-70
2022/04/19 02:27:28;;;;;;;0.75;0.30;;;;;;;;;;5050809;28;20120;-71
2022/04/19 02:29:55;;;;;;;2.38;0.28;;;;;;;;;;5052213;28;20013;-71
2022/04/19 02:32:25;;;;;;;1.02;0.40;;;;;;;;;;5052062;28;20021;-71
2022/04/19 02:34:54;;;;;;;0.85;0.20;;;;;;;;;;5052112;28;20033;-72
2022/04/19 02:37:21;;;;;;;0.80;0.20;;;;;;;;;;5051968;28;20066;-71
2022/04/19 02:39:49;;;;;;;1.52;0.30;;;;;;;;;;5050814;28;20029;-71
2022/04/19 02:42:17;;;;;;;2.85;0.30;;;;;;;;;;5051984;28;20021;-71
2022/04/19 02:44:44;;;;;;;0.98;0.20;;;;;;;;;;5050753;28;20112;-71
2022/04/19 02:47:15;;;;;;;2.47;0.30;;;;;;;;;;5050474;28;20078;-71
2022/04/19 02:49:45;;;;;;;1.42;0.30;;;;;;;;;;5050645;28;20073;-71
2022/04/19 02:52:13;;;;;;;1.30;0.30;;;;;;;;;;5051798;28;20588;-70
2022/04/19 02:54:40;;;;;;;0.68;0.13;;;;;;;;;;5051766;28;20021;-70
2022/04/19 02:57:07;;;;;;;1.20;0.20;;;;;;;;;;5050327;28;20037;-70
2022/04/19 02:59:35;;;;;;;1.13;0.30;;;;;;;;;;5051749;28;20025;-72
2022/04/19 03:02:02;;;;;;;0.93;0.20;;;;;;;;;;5051791;28;20163;-70
2022/04/19 03:04:29;;;;;;;0.95;0.22;;;;;;;;;;5055255;28;20021;-70
2022/04/19 03:06:56;;;;;;;1.02;0.40;;;;;;;;;;5054437;28;20029;-71
2022/04/19 03:09:24;;;;;;;0.60;0.28;;;;;;;;;;5055695;28;20052;-70
2022/04/19 03:11:51;;;;;;;0.80;0.20;;;;;;;;;;5055693;28;20120;-69
2022/04/19 03:14:19;;;;;;;3.33;0.38;;;;;;;;;;5055586;28;20028;-70
2022/04/19 03:16:46;;;;;;;1.58;0.50;;;;;;;;;;5055445;28;20382;-70
2022/04/19 03:19:14;;;;;;;1.25;0.40;;;;;;;;;;5055466;28;20027;-70
2022/04/19 03:21:41;;;;;;;1.25;0.30;;;;;;;;;;5055392;28;20100;-70
2022/04/19 03:29:39;;;;;;;1.60;0.40;;;;;;;;;;5055490;28;20087;-71
2022/04/19 03:32:07;;;;;;;0.65;0.20;;;;;;;;;;5053970;28;20075;-70
2022/04/19 03:34:35;;;;;;;0.75;0.30;;;;;;;;;;5053862;28;20021;-70
2022/04/19 03:37:02;;;;;;;1.25;0.30;;;;;;;;;;5055138;28;20029;-71
2022/04/19 03:39:29;;;;;;;2.25;0.32;;;;;;;;;;5054900;28;20029;-71
2022/04/19 03:41:57;;;;;;;3.08;0.55;;;;;;;;;;5053893;28;20021;-70
2022/04/19 03:44:30;;;;;;;2.67;0.32;;;;;;;;;;5054866;28;20021;-70
2022/04/19 03:47:07;;;;;;;2.58;0.50;;;;;;;;;;5053693;28;20124;-71
2022/04/19 03:49:35;;;;;;;0.50;0.20;;;;;;;;;;5054637;28;20470;-71
2022/04/19 03:52:03;;;;;;;1.77;0.50;;;;;;;;;;5053500;28;20036;-71
2022/04/19 03:54:31;;;;;;;1.17;0.30;;;;;;;;;;5054753;28;20071;-70
2022/04/19 03:56:58;;;;;;;1.02;0.30;;;;;;;;;;5053319;28;20425;-70
2022/04/19 03:59:25;;;;;;;2.33;0.65;;;;;;;;;;5054616;28;20105;-71
2022/04/19 04:01:53;;;;;;;2.85;0.40;;;;;;;;;;5054688;28;20017;-71
2022/04/19 04:04:21;;;;;;;1.45;0.20;;;;;;;;;;5053241;28;20504;-71
2022/04/19 04:06:49;;;;;;;0.52;0.40;;;;;;;;;;5054463;28;20089;-71
2022/04/19 04:09:16;;;;;;;1.13;0.40;;;;;;;;;;5054435;28;20037;-71
2022/04/19 04:11:43;;;;;;;0.50;0.40;;;;;;;;;;5053257;28;20032;-71
2022/04/19 04:14:10;;;;;;;1.35;0.40;;;;;;;;;;5053593;28;20489;-72
2022/04/19 04:16:37;;;;;;;0.95;0.30;;;;;;;;;;5054243;28;20107;-72
2022/04/19 04:19:04;;;;;;;1.15;0.30;;;;;;;;;;5054408;28;20017;-72
2022/04/19 04:21:31;;;;;;;0.77;0.40;;;;;;;;;;5053076;28;20464;-72
2022/04/19 04:23:59;;;;;;;0.57;0.28;;;;;;;;;;5054386;28;20021;-71
2022/04/19 04:26:26;;;;;;;4.68;0.90;;;;;;;;;;5054277;28;20121;-71
2022/04/19 04:28:53;;;;;;;2.88;0.70;;;;;;;;;;5054175;28;20074;-72
2022/04/19 04:31:20;;;;;;;2.97;0.77;;;;;;;;;;5054183;28;20032;-71
2022/04/19 04:33:47;;;;;;;0.98;0.40;;;;;;;;;;5052961;28;20052;-71
2022/04/19 04:36:14;;;;;;;1.92;0.50;;;;;;;;;;5054136;28;20041;-71
2022/04/19 04:38:41;;;;;;;3.22;0.80;;;;;;;;;;5053940;28;20446;-70
2022/04/19 04:41:09;;;;;;;4.10;0.90;;;;;;;;;;5052695;28;20032;-70
2022/04/19 04:43:37;;;;;;;4.43;0.70;;;;;;;;;;5052544;28;20037;-70
2022/04/19 04:51:35;;;;;;;3.45;1.00;;;;;;;;;;5053840;28;20056;-69
2022/04/19 04:54:02;;;;;;;4.13;1.23;;;;;;;;;;5053680;28;20017;-71
2022/04/19 04:56:29;;;;;;;4.10;1.33;;;;;;;;;;5053574;28;20025;-71
2022/04/19 04:58:57;;;;;;;7.35;1.30;;;;;;;;;;5053735;28;20390;-72
2022/04/19 05:01:24;;;;;;;3.90;1.08;;;;;;;;;;5052249;28;20017;-71
2022/04/19 05:03:51;;;;;;;4.22;0.95;;;;;;;;;;5052210;28;20025;-72
2022/04/19 05:06:18;;;;;;;4.07;1.13;;;;;;;;;;5052121;28;20044;-71
2022/04/19 05:08:45;;;;;;;3.70;0.82;;;;;;;;;;5053527;28;20072;-71
2022/04/19 05:11:12;;;;;;;2.60;0.68;;;;;;;;;;5053364;28;20025;-71
2022/04/19 05:13:40;;;;;;;3.92;0.80;;;;;;;;;;5053464;28;20021;-73
2022/04/19 05:16:08;;;;;;;5.97;1.00;;;;;;;;;;5053211;28;20075;-73
2022/04/19 05:18:35;;;;;;;3.15;0.70;;;;;;;;;;5053382;28;20020;-71
2022/04/19 05:21:02;;;;;;;3.95;0.80;;;;;;;;;;5051889;28;20021;-73
2022/04/19 05:23:29;;;;;;;2.88;0.85;;;;;;;;;;5053205;28;20032;-73
2022/04/19 05:25:57;;;;;;;4.65;1.30;;;;;;;;;;5052754;28;20017;-73
2022/04/19 05:28:24;;;;;;;3.75;0.90;;;;;;;;;;5051838;28;20025;-73
2022/04/19 05:30:51;;;;;;;2.55;0.93;;;;;;;;;;5052877;28;20500;-74
2022/04/19 05:33:18;;;;;;;4.28;0.85;;;;;;;;;;5051698;28;20060;-74
2022/04/19 05:35:45;;;;;;;4.30;0.90;;;;;;;;;;5051651;28;20025;-73
2022/04/19 05:38:12;;;;;;;5.22;0.90;;;;;;;;;;5052898;28;20025;-73
2022/04/19 05:40:43;;;;;;;6.65;1.20;;;;;;;;;;5052957;28;20074;-74
2022/04/19 05:43:10;;;;;;;5.07;1.67;;;;;;;;;;5051200;28;20044;-74
2022/04/19 05:45:39;;;;;;;4.85;1.35;;;;;;;;;;5051309;28;20021;-73
2022/04/19 05:48:06;;;;;;;4.82;1.90;;;;;;;;;;5051122;28;20405;-73
2022/04/19 05:50:33;;;;;;;4.95;1.02;;;;;;;;;;5052635;28;20021;-73
2022/04/19 05:53:00;;;;;;;3.65;1.02;;;;;;;;;;5051125;28;20032;-72
2022/04/19 05:55:27;;;;;;;3.92;1.25;;;;;;;;;;5052646;28;20013;-72
2022/04/19 05:57:55;;;;;;;3.63;0.88;;;;;;;;;;5051150;28;20103;-72
2022/04/19 06:00:22;;;;;;;4.13;1.00;;;;;;;;;;5051200;28;20048;-72
2022/04/19 06:05:34;;;;;;;5.88;1.40;;;;;;;;;;5052554;28;20024;-72
2022/04/19 06:08:01;;;;;;;8.30;1.35;;;;;;;;;;5052150;28;20029;-72
2022/04/19 06:10:28;;;;;;;4.03;1.00;;;;;;;;;;5052476;28;20024;-71
2022/04/19 06:12:56;;;;;;;3.50;1.00;;;;;;;;;;5052339;28;20013;-72
2022/04/19 06:15:23;;;;;;;5.32;1.10;;;;;;;;;;5052275;28;20021;-72
2022/04/19 06:17:50;;;;;;;5.95;1.10;;;;;;;;;;5050864;28;20521;-70
2022/04/19 06:20:17;;;;;;;5.55;1.40;;;;;;;;;;5052262;28;20032;-72
2022/04/19 06:22:44;;;;;;;4.28;1.27;;;;;;;;;;5052233;28;20589;-72
2022/04/19 06:25:12;;;;;;;4.47;1.00;;;;;;;;;;5050882;28;20053;-72
2022/04/19 06:27:40;;;;;;;6.78;1.40;;;;;;;;;;5052089;28;20018;-71
2022/04/19 06:30:07;;;;;;;6.70;1.10;;;;;;;;;;5051186;28;20436;-71
2022/04/19 06:32:35;;;;;;;8.20;1.45;;;;;;;;;;5051948;28;20532;-72
2022/04/19 06:35:02;;;;;;;19.88;2.13;;;;;;;;;;5052071;28;20432;-70
2022/04/19 06:37:30;;;;;;;7.20;1.27;;;;;;;;;;5050719;28;20075;-70
2022/04/19 06:40:06;;;;;;;7.97;1.83;;;;;;;;;;5056111;28;20078;-70
2022/04/19 06:42:33;;;;;;;5.95;1.52;;;;;;;;;;5054839;28;20023;-71
2022/04/19 06:45:01;;;;;;;5.18;1.20;;;;;;;;;;5056176;28;20512;-70
2022/04/19 06:47:28;;;;;;;7.47;1.25;;;;;;;;;;5055716;28;20028;-71
2022/04/19 06:49:58;;;;;;;6.25;1.13;;;;;;;;;;5054466;28;20033;-71
2022/04/19 06:52:25;;;;;;;7.55;1.50;;;;;;;;;;5055604;28;20044;-72
2022/04/19 06:54:52;;;;;;;6.47;1.52;;;;;;;;;;5054189;28;20044;-72
2022/04/19 06:57:20;;;;;;;4.90;1.30;;;;;;;;;;5055568;28;20056;-72
2022/04/19 06:59:47;;;;;;;7.18;1.20;;;;;;;;;;5055459;28;20021;-73
2022/04/19 07:02:14;;;;;;;10.40;2.05;;;;;;;;;;5054261;28;20489;-78
2022/04/19 07:04:43;;;;;;;4.65;1.23;;;;;;;;;;5055694;28;20032;-76
2022/04/19 07:07:10;;;;;;;9.18;1.60;;;;;;;;;;5055406;28;20136;-80
2022/04/19 07:09:39;;;;;;;5.82;1.50;;;;;;;;;;5055207;28;20032;-78
2022/04/19 07:12:07;;;;;;;6.78;1.20;;;;;;;;;;5055480;28;20028;-80
2022/04/19 07:14:36;;;;;;;4.63;1.20;;;;;;;;;;5054011;28;20504;-79
2022/04/19 07:17:03;;;;;;;6.18;2.42;;;;;;;;;;5054197;28;20087;-79
2022/04/19 07:26:37;;;;;;;7.65;1.85;;;;;;;;;;5055415;28;20083;-77
2022/04/19 07:27:47;;;;;;;10.30;1.67;;;;;;;;;;5055513;28;20039;-78
2022/04/19 07:30:16;;;;;;;7.85;1.55;;;;;;;;;;5055422;28;20025;-77
2022/04/19 07:32:43;;;;;;;5.93;1.77;;;;;;;;;;5054048;28;20060;-77
2022/04/19 07:35:10;;;;;;;4.95;1.63;;;;;;;;;;5055163;28;20025;-76
2022/04/19 07:37:38;;;;;;;5.40;1.45;;;;;;;;;;5053873;28;20029;-77
2022/04/19 07:40:06;;;;;;;4.43;1.38;;;;;;;;;;5055128;28;20070;-78
2022/04/19 07:42:33;;;;;;;9.05;2.10;;;;;;;;;;5053792;28;20024;-78
2022/04/19 07:45:00;;;;;;;5.18;1.35;;;;;;;;;;5054930;28;20059;-77
2022/04/19 07:47:27;;;;;;;5.78;1.63;;;;;;;;;;5054811;28;20021;-76
2022/04/19 07:49:58;;;;;;;5.88;1.20;;;;;;;;;;5054579;28;20029;-75
2022/04/19 07:52:25;;;;;;;7.05;1.33;;;;;;;;;;5053395;28;20374;-75
2022/04/19 07:54:52;;;;;;;5.78;1.40;;;;;;;;;;5053658;28;20033;-74
2022/04/19 07:57:20;;;;;;;5.38;1.20;;;;;;;;;;5054882;28;20393;-75
2022/04/19 07:59:48;;;;;;;4.35;1.20;;;;;;;;;;5054846;28;20017;-75
2022/04/19 08:02:15;;;;;;;5.38;1.23;;;;;;;;;;5054785;28;20024;-75
2022/04/19 08:04:42;;;;;;;7.38;1.30;;;;;;;;;;5054771;28;20018;-75
2022/04/19 08:07:09;;;;;;;5.38;1.23;;;;;;;;;;5054752;28;20036;-75
2022/04/19 08:09:36;;;;;;;4.20;1.00;;;;;;;;;;5053436;28;20112;-75
2022/04/19 08:12:05;;;;;;;4.85;1.17;;;;;;;;;;5054650;28;20468;-75
2022/04/19 08:14:32;;;;;;;6.35;1.42;;;;;;;;;;5054649;28;20106;-75
2022/04/19 08:16:59;;;;;;;6.18;1.60;;;;;;;;;;5054545;28;20021;-75
2022/04/19 08:19:27;;;;;;;6.60;1.33;;;;;;;;;;5054462;28;20546;-75
2022/04/19 08:21:54;;;;;;;8.35;1.15;;;;;;;;;;5054347;28;20040;-75
2022/04/19 08:24:21;;;;;;;4.75;1.20;;;;;;;;;;5054386;28;20017;-74
2022/04/19 08:26:48;;;;;;;7.13;1.10;;;;;;;;;;5053012;28;20086;-75
2022/04/19 08:29:15;;;;;;;7.32;1.40;;;;;;;;;;5054246;28;20036;-76
2022/04/19 08:31:42;;;;;;;5.25;1.27;;;;;;;;;;5054229;28;20052;-78
2022/04/19 08:34:10;;;;;;;6.60;1.48;;;;;;;;;;5054113;28;20032;-76
2022/04/19 08:36:37;;;;;;;6.88;1.20;;;;;;;;;;5054056;28;20025;-77
2022/04/19 08:39:04;;;;;;;5.13;1.27;;;;;;;;;;5054092;28;20473;-76
2022/04/19 08:41:31;;;;;;;5.72;1.48;;;;;;;;;;5054154;28;20024;-75
2022/04/19 08:43:58;;;;;;;6.05;1.45;;;;;;;;;;5053906;28;20389;-75
2022/04/19 08:46:26;;;;;;;5.32;1.60;;;;;;;;;;5052556;28;20055;-77
2022/04/19 08:48:55;;;;;;;6.07;1.35;;;;;;;;;;5053543;28;20037;-75
2022/04/19 08:51:22;;;;;;;4.50;1.15;;;;;;;;;;5052519;28;20115;-75
2022/04/19 08:59:28;;;;;;;4.63;1.15;;;;;;;;;;5053742;28;20036;-76
2022/04/19 09:01:56;;;;;;;7.10;1.48;;;;;;;;;;5053004;28;20044;-75
2022/04/19 09:04:24;;;;;;;5.90;1.60;;;;;;;;;;5053535;28;20428;-76
2022/04/19 09:06:55;;;;;;;8.18;1.40;;;;;;;;;;5053518;28;20021;-77
2022/04/19 09:09:23;;;;;;;9.43;2.28;;;;;;;;;;5053385;28;20472;-76
2022/04/19 09:11:55;;;;;;;6.25;1.38;;;;;;;;;;5052053;28;20033;-76
2022/04/19 09:14:23;;;;;;;7.72;1.90;;;;;;;;;;5053450;28;20094;-76
2022/04/19 09:17:02;;;;;;;9.48;1.48;;;;;;;;;;5053230;28;20060;-75
2022/04/19 09:19:30;;;;;;;7.85;1.75;;;;;;;;;;5053397;28;20028;-77
2022/04/19 09:21:57;;;;;;;9.73;1.70;;;;;;;;;;5053272;28;20045;-76
2022/04/19 09:24:25;;;;;;;8.38;1.60;;;;;;;;;;5053108;28;20386;-76
2022/04/19 09:26:53;;;;;;;8.35;1.23;;;;;;;;;;5053052;28;20366;-76
2022/04/19 09:29:21;;;;;;;10.15;1.45;;;;;;;;;;5051705;28;20025;-74
2022/04/19 09:31:52;;;;;;;7.78;1.77;;;;;;;;;;5051787;28;20107;-76
2022/04/19 09:34:28;;;;;;;10.70;1.90;;;;;;;;;;5053091;28;20021;-76
2022/04/19 09:37:07;;;;;;;9.52;1.60;;;;;;;;;;5052899;28;20021;-76
2022/04/19 09:39:36;;;;;;;8.23;1.88;;;;;;;;;;5052854;28;20016;-76
2022/04/19 09:42:05;;;;;;;8.80;2.38;;;;;;;;;;5052906;28;20021;-76
2022/04/19 09:44:37;;;;;;;5.70;1.58;;;;;;;;;;5052797;28;20036;-76
2022/04/19 09:47:06;;;;;;;13.13;2.15;;;;;;;;;;5052681;28;20488;-75
2022/04/19 09:49:52;;;;;;;10.02;1.92;;;;;;;;;;5051111;28;20060;-76
2022/04/19 09:52:22;;;;;;;9.45;1.80;;;;;;;;;;5052677;28;20071;-76
2022/04/19 09:55:02;;;;;;;7.32;1.50;;;;;;;;;;5052576;28;20039;-76
2022/04/19 09:57:31;;;;;;;9.10;1.73;;;;;;;;;;5052470;28;20031;-76
2022/04/19 10:00:00;;;;;;;10.57;1.58;;;;;;;;;;5051077;28;20028;-76
2022/04/19 10:10:43;;;;;;;9.43;1.67;;;;;;;;;;5052160;28;20079;-75
2022/04/19 10:13:10;;;;;;;6.35;1.20;;;;;;;;;;5052161;28;20029;-74
2022/04/19 10:15:39;;;;;;;5.45;1.50;;;;;;;;;;5051058;28;20116;-77
2022/04/19 10:18:07;;;;;;;7.20;1.40;;;;;;;;;;5052224;28;20029;-76
2022/04/19 10:20:40;;;;;;;8.35;1.90;;;;;;;;;;5050917;28;20024;-76
2022/04/19 10:23:09;;;;;;;9.02;1.70;;;;;;;;;;5052151;28;20021;-77
2022/04/19 10:25:48;;;;;;;8.77;1.50;;;;;;;;;;5052223;28;20036;-78
2022/04/19 10:28:36;;;;;;;8.15;1.70;;;;;;;;;;5050899;28;20473;-78
2022/04/19 10:31:05;;;;;;;8.13;1.80;;;;;;;;;;5052210;28;20075;-76
2022/04/19 10:33:41;;;;;;;7.95;1.23;;;;;;;;;;5050806;28;20478;-77
2022/04/19 10:36:23;;;;;;;8.63;1.65;;;;;;;;;;5051965;28;20048;-76
2022/04/19 10:39:09;;;;;;;7.78;1.55;;;;;;;;;;5050695;28;20107;-77
2022/04/19 10:41:48;;;;;;;9.00;2.30;;;;;;;;;;5051801;28;20025;-76
2022/04/19 10:44:35;;;;;;;6.55;1.85;;;;;;;;;;5052010;28;20017;-78
2022/04/19 10:47:14;;;;;;;7.40;1.40;;;;;;;;;;5051953;28;20045;-77
2022/04/19 10:49:57;;;;;;;11.18;2.13;;;;;;;;;;5050884;28;20041;-77
2022/04/19 10:52:40;;;;;;;6.13;1.20;;;;;;;;;;5051902;28;20025;-77
2022/04/19 10:55:08;;;;;;;9.48;1.40;;;;;;;;;;5050534;28;20608;-77
2022/04/19 11:00:33;;;;;;;6.00;1.20;;;;;;;;;;5052007;28;20035;-76
2022/04/19 11:03:07;;;;;;;11.25;1.70;;;;;;;;;;5051849;28;20025;-75
2022/04/19 11:05:41;;;;;;;5.15;1.20;;;;;;;;;;5051808;28;20021;-75
2022/04/19 11:08:26;;;;;;;5.10;1.10;;;;;;;;;;5051939;28;20068;-76
2022/04/19 11:10:57;;;;;;;10.40;1.75;;;;;;;;;;5050420;28;20152;-75
2022/04/19 11:13:26;;;;;;;6.38;1.70;;;;;;;;;;5051774;28;20143;-76
2022/04/19 11:16:00;;;;;;;6.80;1.10;;;;;;;;;;5051643;28;20016;-76
2022/04/19 11:18:31;;;;;;;7.80;1.30;;;;;;;;;;5050473;28;20144;-76
2022/04/19 11:21:01;;;;;;;9.85;1.38;;;;;;;;;;5050429;28;20394;-77
2022/04/19 11:23:32;;;;;;;9.25;1.40;;;;;;;;;;5051931;28;20021;-76
2022/04/19 11:26:00;;;;;;;;;;;;;;;;;;5055900;28;20028;-75
2022/04/19 11:28:30;;;;;;;4.53;0.75;;;;;;;;;;5055377;28;20384;-76
2022/04/19 11:30:57;;;;;;;3.25;0.70;;;;;;;;;;5055448;28;20036;-76
2022/04/19 11:33:34;;;;;;;4.90;1.52;;;;;;;;;;5055286;28;20381;-76
2022/04/19 11:36:05;;;;;;;10.25;0.98;;;;;;;;;;5055135;28;20086;-76
2022/04/19 11:38:36;;;;;;;4.35;0.70;;;;;;;;;;5053857;28;20036;-75
2022/04/19 11:46:46;;;;;;;4.72;1.13;;;;;;;;;;5055403;28;20040;-74
2022/04/19 11:49:30;;;;;;;3.55;0.90;;;;;;;;;;5055017;28;20045;-72
2022/04/19 11:51:58;;;;;;;5.22;1.08;;;;;;;;;;5053652;28;20040;-72
2022/04/19 11:54:32;;;;;;;2.75;0.80;;;;;;;;;;5054852;28;20044;-72
2022/04/19 11:57:00;;;;;;;3.47;0.82;;;;;;;;;;5054738;28;20033;-71
2022/04/19 11:59:34;;;;;;;4.90;0.80;;;;;;;;;;5054868;28;20413;-72
2022/04/19 12:02:02;;;;;;;3.17;1.45;;;;;;;;;;5054769;28;20070;-72
2022/04/19 12:04:29;;;;;;;6.53;0.80;;;;;;;;;;5054972;28;20359;-72
2022/04/19 12:07:01;;;;;;;3.65;0.93;;;;;;;;;;5054686;28;20032;-72
2022/04/19 12:09:29;;;;;;;1.80;0.80;;;;;;;;;;5054672;28;20025;-72
2022/04/19 12:11:57;;;;;;;2.15;0.90;;;;;;;;;;5053232;28;20497;-71
2022/04/19 12:14:24;;;;;;;4.15;1.20;;;;;;;;;;5053322;28;20032;-71
2022/04/19 12:17:01;;;;;;;3.45;0.80;;;;;;;;;;5054515;28;20063;-71
2022/04/19 12:19:33;;;;;;;4.03;1.17;;;;;;;;;;5054341;28;20021;-72
2022/04/19 12:22:00;;;;;;;2.45;1.00;;;;;;;;;;5054509;28;20020;-72
2022/04/19 12:24:28;;;;;;;2.40;0.77;;;;;;;;;;5053146;28;20021;-72
2022/04/19 12:27:07;;;;;;;2.38;0.93;;;;;;;;;;5054391;28;20025;-72
2022/04/19 12:29:38;;;;;;;4.32;1.08;;;;;;;;;;5052988;28;20033;-72
2022/04/19 12:32:04;;;;;;;;;;;;;;;;;;5054685;28;20021;-72
2022/04/19 12:34:34;;;;;;;2.63;0.85;;;;;;;;;;5052816;28;19963;-72
2022/04/19 12:37:09;;;;;;;3.28;1.00;;;;;;;;;;5053399;28;20033;-72
2022/04/19 12:39:36;;;;;;;3.90;1.10;;;;;;;;;;5054027;28;20017;-72
2022/04/19 12:42:07;;;;;;;4.43;1.00;;;;;;;;;;5052755;28;20021;-72
2022/04/19 12:44:35;;;;;;;2.38;0.88;;;;;;;;;;5053909;28;20470;-72
2022/04/19 12:47:03;;;;;;;4.68;1.02;;;;;;;;;;5053675;28;20035;-72
2022/04/19 12:49:32;;;;;;;2.03;1.10;;;;;;;;;;5053580;28;20137;-72
2022/04/19 12:52:04;;;;;;;1.60;0.70;;;;;;;;;;5053745;28;20342;-72
2022/04/19 12:54:33;;;;;;;2.35;0.80;;;;;;;;;;5052347;28;20021;-71
2022/04/19 13:00:04;;;;;;;2.67;0.98;;;;;;;;;;5053876;28;20019;-72
2022/04/19 13:02:34;;;;;;;;;;;;;;;;;;5052917;28;20048;-72
2022/04/19 13:05:01;;;;;;;3.00;0.75;;;;;;;;;;5053497;28;19915;-72
2022/04/19 13:13:06;;;;;;;2.58;0.70;;;;;;;;;;5053486;28;20036;-72
2022/04/19 13:15:36;;;;;;;1.10;0.63;;;;;;;;;;5053473;28;20052;-72
2022/04/19 13:18:04;;;;;;;1.75;1.00;;;;;;;;;;5053296;28;20086;-73
2022/04/19 13:20:31;;;;;;;2.70;0.93;;;;;;;;;;5053323;28;20092;-72
2022/04/19 13:22:58;;;;;;;2.33;0.70;;;;;;;;;;5053424;28;20024;-73
2022/04/19 13:25:26;;;;;;;1.98;0.70;;;;;;;;;;5051978;28;20053;-73
2022/04/19 13:27:53;;;;;;;1.33;0.70;;;;;;;;;;5053159;28;20500;-72
2022/04/19 13:30:21;;;;;;;0.95;0.70;;;;;;;;;;5053165;28;20036;-73
2022/04/19 13:32:48;;;;;;;1.35;0.70;;;;;;;;;;5053026;28;20025;-72
2022/04/19 13:35:16;;;;;;;3.20;0.90;;;;;;;;;;5053062;28;20025;-73
2022/04/19 13:40:28;;;;;;;3.97;0.88;;;;;;;;;;5053083;28;20083;-72
2022/04/19 13:42:55;;;;;;;2.38;0.70;;;;;;;;;;5052887;28;20432;-72
2022/04/19 13:45:24;;;;;;;2.03;0.90;;;;;;;;;;5051432;28;20554;-72
2022/04/19 13:47:51;;;;;;;1.73;0.88;;;;;;;;;;5052467;28;20033;-72
2022/04/19 13:50:19;;;;;;;1.60;0.80;;;;;;;;;;5052761;28;20060;-72
2022/04/19 13:52:47;;;;;;;1.27;0.70;;;;;;;;;;5052682;28;20060;-72
2022/04/19 13:55:18;;;;;;;1.30;0.70;;;;;;;;;;5051559;28;20036;-73
2022/04/19 13:57:45;;;;;;;1.75;0.90;;;;;;;;;;5051277;28;20494;-72
2022/04/19 14:00:13;;;;;;;2.22;0.80;;;;;;;;;;5052684;28;20021;-72
2022/04/19 14:02:43;;;;;;;3.50;1.50;;;;;;;;;;5051408;28;20021;-72
2022/04/19 14:05:11;;;;;;;1.90;0.80;;;;;;;;;;5052862;28;20086;-72
2022/04/19 14:07:40;;;;;;;2.25;0.75;;;;;;;;;;5052485;28;20028;-72
2022/04/19 14:10:08;;;;;;;1.73;0.80;;;;;;;;;;5052588;28;20025;-72
2022/04/19 14:12:35;;;;;;;1.30;0.80;;;;;;;;;;5051219;28;20036;-73
2022/04/19 14:15:02;;;;;;;2.75;1.00;;;;;;;;;;5051164;28;20025;-73
2022/04/19 14:17:30;;;;;;;1.70;0.68;;;;;;;;;;5052313;28;20106;-72
2022/04/19 14:19:57;;;;;;;3.60;1.00;;;;;;;;;;5051069;28;20025;-72
2022/04/19 14:22:25;;;;;;;2.38;0.70;;;;;;;;;;5051000;28;20028;-72
2022/04/19 14:24:55;;;;;;;2.17;0.85;;;;;;;;;;5052231;28;20017;-72
2022/04/19 14:27:22;;;;;;;1.95;0.90;;;;;;;;;;5050992;28;20033;-72
2022/04/19 14:35:20;;;;;;;2.65;0.90;;;;;;;;;;5052229;28;20118;-73
2022/04/19 14:37:47;;;;;;;1.95;0.82;;;;;;;;;;5050773;28;20029;-72
2022/04/19 14:40:14;;;;;;;1.75;0.82;;;;;;;;;;5052173;28;20029;-72
2022/04/19 14:42:42;;;;;;;1.98;0.82;;;;;;;;;;5052152;28;20100;-72
2022/04/19 14:45:09;;;;;;;2.58;0.85;;;;;;;;;;5050832;28;20029;-72
2022/04/19 14:47:36;;;;;;;2.35;0.90;;;;;;;;;;5051985;28;20041;-72
2022/04/19 14:50:03;;;;;;;1.42;0.70;;;;;;;;;;5052088;28;20079;-72
2022/04/19 14:52:31;;;;;;;2.35;0.98;;;;;;;;;;5052139;28;20029;-72
2022/04/19 14:54:58;;;;;;;2.47;0.90;;;;;;;;;;5052081;28;20032;-72
2022/04/19 14:57:25;;;;;;;1.90;0.70;;;;;;;;;;5050634;28;20083;-72
2022/04/19 14:59:52;;;;;;;0.98;0.80;;;;;;;;;;5054424;28;20048;-72
2022/04/19 15:02:19;;;;;;;1.77;0.85;;;;;;;;;;5054704;28;20025;-72
2022/04/19 15:04:46;;;;;;;3.05;1.15;;;;;;;;;;5055817;28;20021;-72
2022/04/19 15:07:14;;;;;;;1.92;0.80;;;;;;;;;;5055952;28;20489;-72
2022/04/19 15:09:41;;;;;;;1.17;0.80;;;;;;;;;;5055896;28;20558;-72
2022/04/19 15:12:09;;;;;;;1.25;0.57;;;;;;;;;;5055839;28;20028;-72
2022/04/19 15:14:38;;;;;;;1.55;0.80;;;;;;;;;;5055744;28;20094;-72
2022/04/19 15:17:05;;;;;;;2.60;0.75;;;;;;;;;;5055598;28;20477;-72
2022/04/19 15:19:32;;;;;;;1.80;0.90;;;;;;;;;;5055957;28;20029;-72
2022/04/19 15:22:00;;;;;;;1.15;0.60;;;;;;;;;;5055650;28;20092;-72
2022/04/19 15:24:27;;;;;;;1.20;0.70;;;;;;;;;;5054268;28;20374;-72
2022/04/19 15:26:54;;;;;;;1.15;0.60;;;;;;;;;;5055611;28;20452;-72
2022/04/19 15:29:24;;;;;;;1.40;0.60;;;;;;;;;;5054226;28;20481;-72
2022/04/19 15:31:51;;;;;;;1.45;0.60;;;;;;;;;;5054229;28;20083;-72
2022/04/19 15:34:18;;;;;;;0.70;0.40;;;;;;;;;;5055442;28;20021;-72
2022/04/19 15:36:47;;;;;;;1.38;0.57;;;;;;;;;;5054024;28;20108;-72
2022/04/19 15:39:14;;;;;;;2.15;0.32;;;;;;;;;;5055356;28;20028;-71
2022/04/19 15:41:41;;;;;;;2.50;0.60;;;;;;;;;;5055191;28;20034;-71
2022/04/19 15:44:09;;;;;;;0.73;0.45;;;;;;;;;;5055268;28;20096;-73
2022/04/19 15:46:39;;;;;;;1.35;0.50;;;;;;;;;;5055274;28;20017;-72
2022/04/19 15:49:07;;;;;;;0.75;0.43;;;;;;;;;;5055076;28;20460;-73
2022/04/19 15:51:34;;;;;;;1.25;0.50;;;;;;;;;;5055242;28;20469;-72
2022/04/19 15:54:01;;;;;;;1.17;0.45;;;;;;;;;;5053853;28;20024;-73